createdAt,value
2022-11-03T00:00:57.636Z,12.70
2022-11-03T00:04:01.107Z,12.70
2022-11-03T00:07:04.818Z,12.70
2022-11-03T00:10:08.952Z,12.70
2022-11-03T00:13:14.651Z,12.70
2022-11-03T00:32:31.562Z,12.80
2022-11-03T00:35:35.344Z,12.80
2022-11-03T00:38:38.929Z,12.80
2022-11-03T00:41:42.451Z,12.80
2022-11-03T00:44:45.927Z,12.80
2022-11-03T00:48:04.229Z,12.80
2022-11-03T00:51:08.852Z,12.80
2022-11-03T00:54:14.958Z,12.80
2022-11-03T00:57:18.727Z,12.80
2022-11-03T01:00:22.341Z,12.90
2022-11-03T01:03:27.757Z,12.90
2022-11-03T01:06:44.520Z,12.90
2022-11-03T01:09:47.958Z,12.90
2022-11-03T01:12:51.446Z,12.90
2022-11-03T01:15:58.166Z,13.00
2022-11-03T01:19:03.572Z,13.00
2022-11-03T01:22:10.618Z,13.00
2022-11-03T01:25:14.794Z,12.90
2022-11-03T01:28:18.225Z,13.00
2022-11-03T01:31:23.099Z,13.00
2022-11-03T01:34:28.500Z,12.90
2022-11-03T01:37:31.964Z,13.00
2022-11-03T01:40:35.387Z,12.90
2022-11-03T01:43:39.542Z,12.90
2022-11-03T01:46:55.389Z,12.90
2022-11-03T01:50:02.918Z,12.90
2022-11-03T01:53:06.838Z,12.90
2022-11-03T01:56:11.156Z,12.90
2022-11-03T01:59:14.834Z,12.90
2022-11-03T02:06:06.646Z,12.80
2022-11-03T02:09:10.890Z,12.80
2022-11-03T02:12:16.070Z,12.80
2022-11-03T02:15:21.446Z,12.80
2022-11-03T02:18:27.430Z,12.70
2022-11-03T02:21:37.165Z,12.80
2022-11-03T02:24:49.847Z,12.80
2022-11-03T02:27:59.590Z,12.80
2022-11-03T02:31:09.745Z,12.80
2022-11-03T02:34:16.055Z,12.80
2022-11-03T02:37:21.337Z,12.80
2022-11-03T02:40:27.059Z,12.80
2022-11-03T02:43:33.149Z,12.80
2022-11-03T02:46:37.303Z,12.80
2022-11-03T02:49:41.377Z,12.70
2022-11-03T02:52:46.940Z,12.80
2022-11-03T02:55:53.490Z,12.80
2022-11-03T02:59:00.544Z,12.80
2022-11-03T03:02:06.373Z,12.70
2022-11-03T03:05:11.330Z,12.80
2022-11-03T03:08:16.245Z,12.70
2022-11-03T03:11:36.170Z,12.70
2022-11-03T03:14:43.514Z,12.70
2022-11-03T03:17:50.731Z,12.70
2022-11-03T03:20:57.597Z,12.70
2022-11-03T03:24:02.665Z,12.70
2022-11-03T03:27:06.840Z,12.70
2022-11-03T03:30:13.370Z,12.70
2022-11-03T03:33:17.234Z,12.70
2022-11-03T03:36:21.522Z,12.70
2022-11-03T03:39:27.243Z,12.60
2022-11-03T03:42:32.180Z,12.60
2022-11-03T03:45:38.739Z,12.60
2022-11-03T03:48:42.433Z,12.60
2022-11-03T03:51:46.339Z,12.60
2022-11-03T03:54:50.303Z,12.60
2022-11-03T03:57:56.609Z,12.60
2022-11-03T04:01:05.167Z,12.60
2022-11-03T04:04:08.685Z,12.50
2022-11-03T04:07:25.494Z,12.60
2022-11-03T04:10:29.015Z,12.60
2022-11-03T04:13:45.646Z,12.60
2022-11-03T04:17:04.192Z,12.60
2022-11-03T04:20:24.803Z,12.50
2022-11-03T04:23:28.294Z,12.60
2022-11-03T04:26:32.023Z,12.50
2022-11-03T04:29:35.473Z,12.50
2022-11-03T04:32:41.351Z,12.50
2022-11-03T04:35:45.739Z,12.50
2022-11-03T04:38:49.880Z,12.50
2022-11-03T04:41:53.752Z,12.50
2022-11-03T04:44:57.433Z,12.50
2022-11-03T04:48:03.488Z,12.50
2022-11-03T04:51:12.656Z,12.50
2022-11-03T04:54:17.579Z,12.50
2022-11-03T04:57:21.087Z,12.50
2022-11-03T05:00:25.015Z,12.50
2022-11-03T05:03:32.594Z,12.50
2022-11-03T05:06:36.202Z,12.50
2022-11-03T05:09:42.790Z,12.50
2022-11-03T05:12:47.213Z,12.50
2022-11-03T05:15:51.464Z,12.50
2022-11-03T05:18:57.844Z,12.50
2022-11-03T05:22:02.246Z,12.50
2022-11-03T05:25:26.146Z,12.50
2022-11-03T05:28:32.065Z,12.60
2022-11-03T05:31:36.629Z,12.60
2022-11-03T05:34:43.611Z,12.60
2022-11-03T05:37:47.055Z,12.60
2022-11-03T05:40:51.137Z,12.60
2022-11-03T05:43:57.346Z,12.60
2022-11-03T05:47:04.474Z,12.60
2022-11-03T05:50:21.249Z,12.70
2022-11-03T05:53:32.028Z,12.60
2022-11-03T05:56:36.379Z,12.70
2022-11-03T05:59:39.888Z,12.70
2022-11-03T06:02:44.852Z,12.70
2022-11-03T06:05:50.439Z,12.70
2022-11-03T06:08:54.332Z,12.70
2022-11-03T06:11:58.643Z,12.70
2022-11-03T06:15:02.180Z,12.70
2022-11-03T06:18:14.290Z,12.80
2022-11-03T06:21:23.013Z,12.70
2022-11-03T06:24:28.012Z,12.80
2022-11-03T06:27:46.744Z,12.80
2022-11-03T06:30:51.997Z,12.80
2022-11-03T06:34:09.730Z,12.80
2022-11-03T06:37:29.375Z,12.80
2022-11-03T06:40:35.288Z,12.80
2022-11-03T06:43:41.142Z,12.90
2022-11-03T06:46:45.077Z,12.80
2022-11-03T06:49:48.928Z,12.80
2022-11-03T06:52:54.380Z,12.90
2022-11-03T06:55:57.835Z,12.90
2022-11-03T06:59:20.938Z,12.90
2022-11-03T07:02:44.645Z,12.90
2022-11-03T07:05:48.444Z,12.90
2022-11-03T07:08:55.447Z,12.90
2022-11-03T07:11:59.879Z,13.00
2022-11-03T07:18:15.449Z,13.00
2022-11-03T07:21:32.545Z,13.00
2022-11-03T07:24:40.395Z,13.00
2022-11-03T07:27:44.412Z,13.10
2022-11-03T07:30:47.866Z,13.00
2022-11-03T07:33:52.861Z,13.00
2022-11-03T07:36:58.034Z,13.10
2022-11-03T07:40:04.875Z,13.10
2022-11-03T07:43:15.645Z,13.10
2022-11-03T07:46:21.153Z,13.10
2022-11-03T07:49:28.299Z,13.20
2022-11-03T07:52:32.265Z,13.20
2022-11-03T07:55:38.008Z,13.20
2022-11-03T07:58:42.299Z,13.20
2022-11-03T08:01:47.013Z,13.30
2022-11-03T08:04:50.533Z,13.30
2022-11-03T08:07:53.992Z,13.30
2022-11-03T08:10:59.427Z,13.40
2022-11-03T08:14:03.013Z,13.40
2022-11-03T08:17:07.026Z,13.40
2022-11-03T08:20:11.456Z,13.50
2022-11-03T08:23:30.769Z,13.50
2022-11-03T08:26:36.842Z,13.60
2022-11-03T08:29:40.602Z,13.60
2022-11-03T08:32:44.132Z,13.70
2022-11-03T08:35:47.870Z,13.70
2022-11-03T08:38:51.591Z,13.70
2022-11-03T08:41:57.251Z,13.80
2022-11-03T08:45:00.684Z,13.80
2022-11-03T08:48:04.595Z,13.90
2022-11-03T08:51:09.722Z,13.90
2022-11-03T08:54:13.420Z,14.00
2022-11-03T08:57:18.842Z,14.00
2022-11-03T09:00:22.505Z,14.10
2022-11-03T09:03:29.252Z,14.10
2022-11-03T09:06:33.310Z,14.10
2022-11-03T09:13:02.613Z,14.20
2022-11-03T09:16:06.337Z,14.30
2022-11-03T09:19:09.891Z,14.40
2022-11-03T09:22:13.391Z,14.40
2022-11-03T09:25:20.114Z,14.50
2022-11-03T09:28:25.884Z,14.50
2022-11-03T09:31:30.102Z,14.60
2022-11-03T09:34:33.703Z,14.70
2022-11-03T09:37:37.406Z,14.70
2022-11-03T09:40:41.263Z,14.80
2022-11-03T09:43:46.712Z,14.80
2022-11-03T09:46:53.864Z,14.90
2022-11-03T09:50:01.579Z,15.00
2022-11-03T09:53:05.364Z,15.10
2022-11-03T09:56:11.390Z,15.10
2022-11-03T09:59:18.271Z,15.20
2022-11-03T10:02:23.768Z,15.30
2022-11-03T10:05:28.312Z,15.40
2022-11-03T10:08:32.622Z,15.40
2022-11-03T10:11:36.385Z,15.50
2022-11-03T10:14:42.522Z,15.60
2022-11-03T10:17:46.473Z,15.60
2022-11-03T10:20:49.961Z,15.70
2022-11-03T10:23:53.903Z,15.70
2022-11-03T10:26:57.863Z,15.80
2022-11-03T10:30:09.312Z,15.90
2022-11-03T10:33:26.108Z,16.00
2022-11-03T10:36:30.556Z,16.00
2022-11-03T10:39:34.228Z,16.20
2022-11-03T10:42:37.727Z,16.20
2022-11-03T10:45:43.361Z,16.30
2022-11-03T10:48:46.970Z,16.30
2022-11-03T10:51:51.539Z,16.40
2022-11-03T10:54:56.850Z,16.40
2022-11-03T10:58:00.361Z,16.40
2022-11-03T11:01:07.281Z,16.50
2022-11-03T11:04:12.097Z,16.50
2022-11-03T11:07:24.392Z,16.50
2022-11-03T11:10:29.256Z,16.50
2022-11-03T11:13:32.946Z,16.50
2022-11-03T11:16:52.643Z,16.50
2022-11-03T11:20:11.456Z,16.50
2022-11-03T11:23:30.145Z,16.50
2022-11-03T11:26:35.035Z,16.50
2022-11-03T11:29:38.539Z,16.50
2022-11-03T11:32:57.077Z,16.50
2022-11-03T11:36:09.068Z,16.60
2022-11-03T11:39:13.270Z,16.60
2022-11-03T11:42:18.095Z,16.60
2022-11-03T11:45:36.687Z,16.60
2022-11-03T11:48:40.258Z,16.60
2022-11-03T11:51:45.882Z,16.60
2022-11-03T11:54:49.378Z,16.60
2022-11-03T11:57:53.413Z,16.60
2022-11-03T12:00:58.281Z,16.60
2022-11-03T12:04:03.373Z,16.60
2022-11-03T12:07:13.445Z,16.60
2022-11-03T12:10:17.941Z,16.60
2022-11-03T12:13:36.481Z,16.60
2022-11-03T12:16:40.180Z,16.60
2022-11-03T12:19:45.085Z,16.60
2022-11-03T12:22:51.286Z,16.60
2022-11-03T12:25:54.963Z,16.60
2022-11-03T12:28:58.660Z,16.60
2022-11-03T12:32:02.103Z,16.60
2022-11-03T12:35:06.062Z,16.60
2022-11-03T12:38:11.692Z,16.70
2022-11-03T12:41:24.632Z,16.70
2022-11-03T12:44:28.601Z,16.70
2022-11-03T12:47:32.197Z,16.80
2022-11-03T12:50:37.002Z,16.80
2022-11-03T12:53:42.820Z,16.80
2022-11-03T12:56:46.485Z,16.90
2022-11-03T12:59:50.841Z,16.90
2022-11-03T13:02:54.415Z,16.90
2022-11-03T13:05:57.947Z,16.90
2022-11-03T13:09:03.331Z,16.90
2022-11-03T13:12:20.378Z,16.90
2022-11-03T13:15:24.056Z,16.90
2022-11-03T13:18:27.768Z,16.90
2022-11-03T13:21:31.381Z,16.90
2022-11-03T13:24:37.255Z,16.90
2022-11-03T13:27:40.759Z,16.90
2022-11-03T13:30:44.469Z,16.90
2022-11-03T13:33:48.169Z,16.90
2022-11-03T13:36:51.870Z,16.90
2022-11-03T13:39:57.478Z,17.00
2022-11-03T13:43:01.050Z,17.00
2022-11-03T13:46:04.753Z,17.00
2022-11-03T13:49:51.181Z,17.00
2022-11-03T13:52:32.080Z,17.00
2022-11-03T14:05:32.184Z,17.10
2022-11-03T14:08:35.891Z,17.10
2022-11-03T14:11:54.501Z,17.10
2022-11-03T14:14:58.219Z,17.10
2022-11-03T14:18:01.847Z,17.10
2022-11-03T14:21:05.558Z,17.10
2022-11-03T14:24:09.325Z,17.10
2022-11-03T14:27:15.240Z,17.10
2022-11-03T14:30:21.213Z,17.10
2022-11-03T14:33:24.729Z,17.10
2022-11-03T14:37:20.304Z,17.10
2022-11-03T14:40:36.978Z,17.10
2022-11-03T14:43:41.005Z,17.10
2022-11-03T14:46:44.753Z,17.10
2022-11-03T14:49:48.844Z,17.00
2022-11-03T14:52:58.842Z,17.00
2022-11-03T14:56:03.905Z,17.00
2022-11-03T14:59:07.814Z,17.00
2022-11-03T15:02:13.014Z,16.90
2022-11-03T15:05:29.799Z,16.90
2022-11-03T15:08:36.675Z,16.90
2022-11-03T15:11:40.851Z,16.80
2022-11-03T15:14:44.607Z,16.80
2022-11-03T15:17:48.438Z,16.70
2022-11-03T15:20:52.201Z,16.70
2022-11-03T15:27:21.814Z,16.70
2022-11-03T15:30:25.978Z,16.70
2022-11-03T15:33:29.814Z,16.60
2022-11-03T15:36:33.897Z,16.60
2022-11-03T15:39:39.885Z,16.60
2022-11-03T15:42:46.053Z,16.60
2022-11-03T15:45:50.335Z,16.50
2022-11-03T15:48:55.859Z,16.50
2022-11-03T15:51:59.716Z,16.40
2022-11-03T15:55:05.878Z,16.30
2022-11-03T15:58:09.812Z,16.30
2022-11-03T16:01:14.069Z,16.20
2022-11-03T16:04:18.051Z,16.10
2022-11-03T16:07:21.946Z,16.00
2022-11-03T16:10:27.351Z,15.90
2022-11-03T16:13:31.187Z,15.90
2022-11-03T16:16:34.929Z,15.70
2022-11-03T16:19:38.665Z,15.70
2022-11-03T16:22:42.415Z,15.60
2022-11-03T16:25:48.294Z,15.50
2022-11-03T16:28:52.564Z,15.40
2022-11-03T16:31:56.461Z,15.30
2022-11-03T16:34:59.961Z,15.30
2022-11-03T16:38:04.869Z,15.20
2022-11-03T16:41:10.937Z,15.20
2022-11-03T16:44:14.614Z,15.10
2022-11-03T16:47:18.293Z,15.10
2022-11-03T16:50:22.594Z,15.00
2022-11-03T16:53:26.572Z,15.00
2022-11-03T16:56:32.305Z,14.90
2022-11-03T16:59:35.983Z,14.80
2022-11-03T17:02:39.989Z,14.80
2022-11-03T17:05:43.554Z,14.70
2022-11-03T17:08:52.661Z,14.70
2022-11-03T17:11:59.208Z,14.60
2022-11-03T17:15:03.429Z,14.60
2022-11-03T17:18:07.540Z,14.50
2022-11-03T17:21:11.594Z,14.50
2022-11-03T17:24:15.162Z,14.40
2022-11-03T17:27:23.315Z,14.40
2022-11-03T17:30:28.811Z,14.40
2022-11-03T17:33:32.603Z,14.30
2022-11-03T17:36:39.225Z,14.30
2022-11-03T17:39:42.760Z,14.20
2022-11-03T17:42:49.159Z,14.20
2022-11-03T17:45:53.255Z,14.20
2022-11-03T17:48:57.095Z,14.10
2022-11-03T17:52:01.021Z,14.10
2022-11-03T17:55:05.848Z,14.00
2022-11-03T17:58:12.780Z,14.00
2022-11-03T18:01:21.708Z,14.00
2022-11-03T18:04:25.975Z,13.90
2022-11-03T18:07:30.936Z,13.90
2022-11-03T18:10:39.800Z,13.80
2022-11-03T18:13:46.290Z,13.80
2022-11-03T18:16:51.033Z,13.80
2022-11-03T18:19:54.856Z,13.70
2022-11-03T18:23:13.730Z,13.70
2022-11-03T18:26:25.013Z,13.70
2022-11-03T18:29:30.658Z,13.70
2022-11-03T18:32:35.816Z,13.60
2022-11-03T18:35:42.306Z,13.60
2022-11-03T18:38:47.801Z,13.60
2022-11-03T18:41:51.490Z,13.60
2022-11-03T18:45:01.476Z,13.60
2022-11-03T18:48:07.284Z,13.50
2022-11-03T18:51:11.176Z,13.50
2022-11-03T18:54:16.108Z,13.40
2022-11-03T18:57:24.729Z,13.40
2022-11-03T19:00:31.155Z,13.50
2022-11-03T19:03:35.079Z,13.40
2022-11-03T19:06:39.328Z,13.40
2022-11-03T19:09:45.886Z,13.40
2022-11-03T19:12:49.935Z,13.40
2022-11-03T19:15:57.693Z,13.40
2022-11-03T19:19:01.682Z,13.30
2022-11-03T19:22:06.652Z,13.30
2022-11-03T19:25:11.051Z,13.30
2022-11-03T19:28:18.465Z,13.30
2022-11-03T19:31:28.206Z,13.30
2022-11-03T19:34:34.478Z,13.30
2022-11-03T19:37:38.304Z,13.30
2022-11-03T19:41:03.968Z,13.30
2022-11-03T19:44:12.379Z,13.30
2022-11-03T19:47:19.278Z,13.30
2022-11-03T19:50:26.314Z,13.30
2022-11-03T19:53:32.572Z,13.30
2022-11-03T19:56:36.568Z,13.30
2022-11-03T19:59:40.546Z,13.30
2022-11-03T20:02:47.147Z,13.30
2022-11-03T20:05:53.873Z,13.30
2022-11-03T20:08:58.274Z,13.30
2022-11-03T20:12:06.881Z,13.30
2022-11-03T20:15:17.516Z,13.30
2022-11-03T20:18:23.632Z,13.30
2022-11-03T20:21:34.065Z,13.30
2022-11-03T20:24:38.728Z,13.30
2022-11-03T20:27:42.460Z,13.30
2022-11-03T20:30:46.625Z,13.20
2022-11-03T20:33:53.155Z,13.30
2022-11-03T20:36:58.963Z,13.30
2022-11-03T20:40:05.750Z,13.30
2022-11-03T20:43:25.173Z,13.30
2022-11-03T20:46:31.565Z,13.30
2022-11-03T20:49:37.662Z,13.30
2022-11-03T20:52:43.460Z,13.30
2022-11-03T20:55:47.478Z,13.30
2022-11-03T20:58:50.993Z,13.30
2022-11-03T21:01:56.047Z,13.30
2022-11-03T21:05:02.276Z,13.30
2022-11-03T21:08:06.423Z,13.30
2022-11-03T21:11:26.752Z,13.30
2022-11-03T21:14:32.458Z,13.30
2022-11-03T21:17:49.313Z,13.30
2022-11-03T21:20:55.381Z,13.30
2022-11-03T21:23:59.082Z,13.30
2022-11-03T21:27:02.825Z,13.30
2022-11-03T21:30:08.231Z,13.30
2022-11-03T21:33:13.342Z,13.30
2022-11-03T21:36:19.002Z,13.30
2022-11-03T21:39:22.710Z,13.30
2022-11-03T21:42:39.543Z,13.30
2022-11-03T21:45:43.678Z,13.30
2022-11-03T21:49:00.471Z,13.30
2022-11-03T21:52:07.002Z,13.30
2022-11-03T21:55:11.491Z,13.30
2022-11-03T21:58:15.673Z,13.30
2022-11-03T22:01:19.480Z,13.30
2022-11-03T22:04:23.746Z,13.30
2022-11-03T22:07:32.901Z,13.30
2022-11-03T22:10:39.822Z,13.30
2022-11-03T22:13:43.505Z,13.30
2022-11-03T22:16:45.949Z,13.30
2022-11-03T22:20:02.784Z,13.30
2022-11-03T22:23:22.497Z,13.30
2022-11-03T22:26:39.931Z,13.30
2022-11-03T22:29:56.794Z,13.30
2022-11-03T22:33:00.957Z,13.30
2022-11-03T22:36:26.515Z,13.20
2022-11-03T22:39:45.297Z,13.30
2022-11-03T22:43:01.896Z,13.20
2022-11-03T22:46:06.222Z,13.20
2022-11-03T22:49:09.952Z,13.20
2022-11-03T22:52:14.164Z,13.30
2022-11-03T22:55:20.224Z,13.30
2022-11-03T22:58:29.393Z,13.30
2022-11-03T23:01:34.565Z,13.30
2022-11-03T23:04:38.375Z,13.20
2022-11-03T23:07:42.567Z,13.30
2022-11-03T23:10:48.257Z,13.30
2022-11-03T23:13:57.154Z,13.20
2022-11-03T23:17:00.887Z,13.30
2022-11-03T23:20:17.801Z,13.30
2022-11-03T23:23:34.427Z,13.20
2022-11-03T23:26:40.807Z,13.20
2022-11-03T23:29:45.044Z,13.20
2022-11-03T23:32:48.709Z,13.20
2022-11-03T23:35:52.895Z,13.10
2022-11-03T23:38:57.723Z,13.10
2022-11-03T23:42:03.411Z,13.10
2022-11-03T23:45:21.664Z,13.10
2022-11-03T23:48:38.518Z,13.10
2022-11-03T23:51:42.557Z,13.10
2022-11-03T23:54:46.741Z,13.10
2022-11-03T23:58:05.685Z,13.00
